sensor_id;sensor_type;location;lat;lon;timestamp;temperature;humidity
26212;DHT22;13951;49.516;6.094;2024-02-23T00:01:45;5.60;99.90
26212;DHT22;13951;49.516;6.094;2024-02-23T00:04:18;5.60;99.90
26212;DHT22;13951;49.516;6.094;2024-02-23T00:06:52;5.60;99.90
26212;DHT22;13951;49.516;6.094;2024-02-23T00:09:25;5.60;99.90
26212;DHT22;13951;49.516;6.094;2024-02-23T00:12:00;5.50;99.90
26212;DHT22;13951;49.516;6.094;2024-02-23T00:14:33;5.60;99.90
26212;DHT22;13951;49.516;6.094;2024-02-23T00:17:09;5.50;99.90
26212;DHT22;13951;49.516;6.094;2024-02-23T00:19:45;5.50;99.90
26212;DHT22;13951;49.516;6.094;2024-02-23T00:22:19;5.50;99.90
26212;DHT22;13951;49.516;6.094;2024-02-23T00:24:52;5.50;99.90
26212;DHT22;13951;49.516;6.094;2024-02-23T00:27:26;5.60;99.90
26212;DHT22;13951;49.516;6.094;2024-02-23T00:29:59;5.60;99.90
26212;DHT22;13951;49.516;6.094;2024-02-23T00:32:33;5.60;99.90
26212;DHT22;13951;49.516;6.094;2024-02-23T00:35:06;5.50;99.90
26212;DHT22;13951;49.516;6.094;2024-02-23T00:37:40;5.50;99.90
26212;DHT22;13951;49.516;6.094;2024-02-23T00:40:13;5.60;99.90
26212;DHT22;13951;49.516;6.094;2024-02-23T00:42:46;5.60;99.90
26212;DHT22;13951;49.516;6.094;2024-02-23T00:45:19;5.60;99.90
26212;DHT22;13951;49.516;6.094;2024-02-23T00:47:53;5.50;99.90
26212;DHT22;13951;49.516;6.094;2024-02-23T00:50:26;5.50;99.90
26212;DHT22;13951;49.516;6.094;2024-02-23T00:53:00;5.50;99.90
26212;DHT22;13951;49.516;6.094;2024-02-23T00:55:33;5.60;99.90
26212;DHT22;13951;49.516;6.094;2024-02-23T00:58:07;5.50;99.90
26212;DHT22;13951;49.516;6.094;2024-02-23T01:00:40;5.60;99.90
26212;DHT22;13951;49.516;6.094;2024-02-23T01:03:13;5.50;99.90
26212;DHT22;13951;49.516;6.094;2024-02-23T01:05:46;5.60;99.90
26212;DHT22;13951;49.516;6.094;2024-02-23T01:08:20;5.50;99.90
26212;DHT22;13951;49.516;6.094;2024-02-23T01:10:53;5.40;99.90
26212;DHT22;13951;49.516;6.094;2024-02-23T01:13:26;5.40;99.90
26212;DHT22;13951;49.516;6.094;2024-02-23T01:16:00;5.40;99.90
26212;DHT22;13951;49.516;6.094;2024-02-23T01:18:33;5.30;99.90
26212;DHT22;13951;49.516;6.094;2024-02-23T01:21:06;5.30;99.90
26212;DHT22;13951;49.516;6.094;2024-02-23T01:23:39;5.20;99.90
26212;DHT22;13951;49.516;6.094;2024-02-23T01:26:12;5.20;99.90
26212;DHT22;13951;49.516;6.094;2024-02-23T01:28:46;5.20;99.90
26212;DHT22;13951;49.516;6.094;2024-02-23T01:31:19;5.20;99.90
26212;DHT22;13951;49.516;6.094;2024-02-23T01:33:53;5.20;99.90
26212;DHT22;13951;49.516;6.094;2024-02-23T01:36:26;5.30;99.90
26212;DHT22;13951;49.516;6.094;2024-02-23T01:38:59;5.30;99.90
26212;DHT22;13951;49.516;6.094;2024-02-23T01:41:32;5.30;99.90
26212;DHT22;13951;49.516;6.094;2024-02-23T01:44:06;5.30;99.90
26212;DHT22;13951;49.516;6.094;2024-02-23T01:46:39;5.30;99.90
26212;DHT22;13951;49.516;6.094;2024-02-23T01:49:12;5.30;99.90
26212;DHT22;13951;49.516;6.094;2024-02-23T01:51:48;5.20;99.90
26212;DHT22;13951;49.516;6.094;2024-02-23T01:54:21;5.20;99.90
26212;DHT22;13951;49.516;6.094;2024-02-23T01:56:55;5.20;99.90
26212;DHT22;13951;49.516;6.094;2024-02-23T01:59:29;5.30;99.90
26212;DHT22;13951;49.516;6.094;2024-02-23T02:02:03;5.30;99.90
26212;DHT22;13951;49.516;6.094;2024-02-23T02:04:37;5.30;99.90
26212;DHT22;13951;49.516;6.094;2024-02-23T02:07:10;5.30;99.90
26212;DHT22;13951;49.516;6.094;2024-02-23T02:09:43;5.30;99.90
26212;DHT22;13951;49.516;6.094;2024-02-23T02:12:29;5.30;99.90
26212;DHT22;13951;49.516;6.094;2024-02-23T02:15:04;5.30;99.90
26212;DHT22;13951;49.516;6.094;2024-02-23T02:17:37;5.40;99.90
26212;DHT22;13951;49.516;6.094;2024-02-23T02:20:13;5.40;99.90
26212;DHT22;13951;49.516;6.094;2024-02-23T02:22:46;5.30;99.90
26212;DHT22;13951;49.516;6.094;2024-02-23T02:25:20;5.40;99.90
26212;DHT22;13951;49.516;6.094;2024-02-23T02:27:53;5.40;99.90
26212;DHT22;13951;49.516;6.094;2024-02-23T02:30:26;5.40;99.90
26212;DHT22;13951;49.516;6.094;2024-02-23T02:32:59;5.40;99.90
26212;DHT22;13951;49.516;6.094;2024-02-23T02:35:33;5.40;99.90
26212;DHT22;13951;49.516;6.094;2024-02-23T02:38:06;5.40;99.90
26212;DHT22;13951;49.516;6.094;2024-02-23T02:40:39;5.40;99.90
26212;DHT22;13951;49.516;6.094;2024-02-23T02:43:13;5.30;99.90
26212;DHT22;13951;49.516;6.094;2024-02-23T02:45:46;5.30;99.90
26212;DHT22;13951;49.516;6.094;2024-02-23T02:48:19;5.30;99.90
26212;DHT22;13951;49.516;6.094;2024-02-23T02:50:52;5.30;99.90
26212;DHT22;13951;49.516;6.094;2024-02-23T02:53:26;5.30;99.90
26212;DHT22;13951;49.516;6.094;2024-02-23T02:55:59;5.30;99.90
26212;DHT22;13951;49.516;6.094;2024-02-23T02:58:32;5.30;99.90
26212;DHT22;13951;49.516;6.094;2024-02-23T03:01:06;5.30;99.90
26212;DHT22;13951;49.516;6.094;2024-02-23T03:03:39;5.30;99.90
26212;DHT22;13951;49.516;6.094;2024-02-23T03:06:13;5.30;99.90
26212;DHT22;13951;49.516;6.094;2024-02-23T03:08:46;5.30;99.90
26212;DHT22;13951;49.516;6.094;2024-02-23T03:11:19;5.20;99.90
26212;DHT22;13951;49.516;6.094;2024-02-23T03:13:52;5.30;99.90
26212;DHT22;13951;49.516;6.094;2024-02-23T03:16:26;5.20;99.90
26212;DHT22;13951;49.516;6.094;2024-02-23T03:18:59;5.20;99.90
26212;DHT22;13951;49.516;6.094;2024-02-23T03:21:32;5.20;99.90
26212;DHT22;13951;49.516;6.094;2024-02-23T03:24:09;5.10;99.90
26212;DHT22;13951;49.516;6.094;2024-02-23T03:26:43;5.10;99.90
26212;DHT22;13951;49.516;6.094;2024-02-23T03:29:16;5.10;99.90
26212;DHT22;13951;49.516;6.094;2024-02-23T03:31:50;5.10;99.90
26212;DHT22;13951;49.516;6.094;2024-02-23T03:34:24;5.10;99.90
26212;DHT22;13951;49.516;6.094;2024-02-23T03:36:57;5.10;99.90
26212;DHT22;13951;49.516;6.094;2024-02-23T03:39:35;5.10;99.90
26212;DHT22;13951;49.516;6.094;2024-02-23T03:42:10;5.10;99.90
26212;DHT22;13951;49.516;6.094;2024-02-23T03:44:43;5.10;99.90
26212;DHT22;13951;49.516;6.094;2024-02-23T03:47:16;5.10;99.90
26212;DHT22;13951;49.516;6.094;2024-02-23T03:49:50;5.10;99.90
26212;DHT22;13951;49.516;6.094;2024-02-23T03:52:23;5.00;99.90
26212;DHT22;13951;49.516;6.094;2024-02-23T03:54:56;5.00;99.90
26212;DHT22;13951;49.516;6.094;2024-02-23T03:57:30;5.00;99.90
26212;DHT22;13951;49.516;6.094;2024-02-23T04:00:05;5.00;99.90
26212;DHT22;13951;49.516;6.094;2024-02-23T04:02:46;5.00;99.90
26212;DHT22;13951;49.516;6.094;2024-02-23T04:05:19;5.00;99.90
26212;DHT22;13951;49.516;6.094;2024-02-23T04:07:53;5.00;99.90
26212;DHT22;13951;49.516;6.094;2024-02-23T04:10:26;4.90;99.90
26212;DHT22;13951;49.516;6.094;2024-02-23T04:13:00;4.90;99.90
26212;DHT22;13951;49.516;6.094;2024-02-23T04:15:33;4.90;99.90
26212;DHT22;13951;49.516;6.094;2024-02-23T04:18:06;4.90;99.90
26212;DHT22;13951;49.516;6.094;2024-02-23T04:20:40;4.90;99.90
26212;DHT22;13951;49.516;6.094;2024-02-23T04:23:13;4.90;99.90
26212;DHT22;13951;49.516;6.094;2024-02-23T04:25:47;4.90;99.90
26212;DHT22;13951;49.516;6.094;2024-02-23T04:28:21;4.90;99.90
26212;DHT22;13951;49.516;6.094;2024-02-23T04:30:54;4.90;99.90
26212;DHT22;13951;49.516;6.094;2024-02-23T04:33:27;4.90;99.90
26212;DHT22;13951;49.516;6.094;2024-02-23T04:36:00;4.90;99.90
26212;DHT22;13951;49.516;6.094;2024-02-23T04:38:34;4.90;99.90
26212;DHT22;13951;49.516;6.094;2024-02-23T04:41:07;5.00;99.90
26212;DHT22;13951;49.516;6.094;2024-02-23T04:43:41;5.00;99.90
26212;DHT22;13951;49.516;6.094;2024-02-23T04:46:14;5.00;99.90
26212;DHT22;13951;49.516;6.094;2024-02-23T04:48:48;5.00;99.90
26212;DHT22;13951;49.516;6.094;2024-02-23T04:51:21;4.90;99.90
26212;DHT22;13951;49.516;6.094;2024-02-23T04:53:56;5.00;99.90
26212;DHT22;13951;49.516;6.094;2024-02-23T04:56:29;5.00;99.90
26212;DHT22;13951;49.516;6.094;2024-02-23T04:59:02;5.00;99.90
26212;DHT22;13951;49.516;6.094;2024-02-23T05:01:37;4.90;99.90
26212;DHT22;13951;49.516;6.094;2024-02-23T05:04:10;5.00;99.90
26212;DHT22;13951;49.516;6.094;2024-02-23T05:06:43;4.90;99.90
26212;DHT22;13951;49.516;6.094;2024-02-23T05:09:16;4.90;99.90
26212;DHT22;13951;49.516;6.094;2024-02-23T05:11:49;4.90;99.90
26212;DHT22;13951;49.516;6.094;2024-02-23T05:14:23;4.90;99.90
26212;DHT22;13951;49.516;6.094;2024-02-23T05:16:56;4.90;99.90
26212;DHT22;13951;49.516;6.094;2024-02-23T05:19:29;4.80;99.90
26212;DHT22;13951;49.516;6.094;2024-02-23T05:22:03;4.90;99.90
26212;DHT22;13951;49.516;6.094;2024-02-23T05:24:37;4.90;99.90
26212;DHT22;13951;49.516;6.094;2024-02-23T05:27:11;4.90;99.90
26212;DHT22;13951;49.516;6.094;2024-02-23T05:29:45;4.90;99.90
26212;DHT22;13951;49.516;6.094;2024-02-23T05:32:18;4.90;99.90
26212;DHT22;13951;49.516;6.094;2024-02-23T05:34:52;4.90;99.90
26212;DHT22;13951;49.516;6.094;2024-02-23T05:37:27;4.90;99.90
26212;DHT22;13951;49.516;6.094;2024-02-23T05:40:01;4.90;99.90
26212;DHT22;13951;49.516;6.094;2024-02-23T05:42:37;4.90;99.90
26212;DHT22;13951;49.516;6.094;2024-02-23T05:45:12;4.90;99.90
26212;DHT22;13951;49.516;6.094;2024-02-23T05:47:45;4.90;99.90
26212;DHT22;13951;49.516;6.094;2024-02-23T05:50:22;4.80;99.90
26212;DHT22;13951;49.516;6.094;2024-02-23T05:52:55;4.80;99.90
26212;DHT22;13951;49.516;6.094;2024-02-23T05:55:28;4.80;99.90
26212;DHT22;13951;49.516;6.094;2024-02-23T05:58:01;4.80;99.90
26212;DHT22;13951;49.516;6.094;2024-02-23T06:00:36;4.80;99.90
26212;DHT22;13951;49.516;6.094;2024-02-23T06:03:09;4.90;99.90
26212;DHT22;13951;49.516;6.094;2024-02-23T06:05:42;4.90;99.90
26212;DHT22;13951;49.516;6.094;2024-02-23T06:08:16;4.90;99.90
26212;DHT22;13951;49.516;6.094;2024-02-23T06:10:51;4.80;99.90
26212;DHT22;13951;49.516;6.094;2024-02-23T06:13:25;4.90;99.90
26212;DHT22;13951;49.516;6.094;2024-02-23T06:15:58;4.90;99.90
26212;DHT22;13951;49.516;6.094;2024-02-23T06:18:31;4.90;99.90
26212;DHT22;13951;49.516;6.094;2024-02-23T06:21:11;4.80;99.90
26212;DHT22;13951;49.516;6.094;2024-02-23T06:23:45;4.80;99.90
26212;DHT22;13951;49.516;6.094;2024-02-23T06:26:19;4.80;99.90
26212;DHT22;13951;49.516;6.094;2024-02-23T06:28:52;4.80;99.90
26212;DHT22;13951;49.516;6.094;2024-02-23T06:31:26;4.80;99.90
26212;DHT22;13951;49.516;6.094;2024-02-23T06:33:59;4.80;99.90
26212;DHT22;13951;49.516;6.094;2024-02-23T06:36:33;4.80;99.90
26212;DHT22;13951;49.516;6.094;2024-02-23T06:39:06;4.80;99.90
26212;DHT22;13951;49.516;6.094;2024-02-23T06:41:43;4.80;99.90
26212;DHT22;13951;49.516;6.094;2024-02-23T06:44:16;4.80;99.90
26212;DHT22;13951;49.516;6.094;2024-02-23T06:46:50;4.80;99.90
26212;DHT22;13951;49.516;6.094;2024-02-23T06:49:23;4.90;99.90
26212;DHT22;13951;49.516;6.094;2024-02-23T06:51:56;4.90;99.90
26212;DHT22;13951;49.516;6.094;2024-02-23T06:54:29;4.90;99.90
26212;DHT22;13951;49.516;6.094;2024-02-23T06:57:03;4.90;99.90
26212;DHT22;13951;49.516;6.094;2024-02-23T06:59:36;4.90;99.90
26212;DHT22;13951;49.516;6.094;2024-02-23T07:02:09;5.00;99.90
26212;DHT22;13951;49.516;6.094;2024-02-23T07:04:42;5.00;99.90
26212;DHT22;13951;49.516;6.094;2024-02-23T07:07:16;5.00;99.90
26212;DHT22;13951;49.516;6.094;2024-02-23T07:09:49;5.00;99.90
26212;DHT22;13951;49.516;6.094;2024-02-23T07:12:23;5.10;99.90
26212;DHT22;13951;49.516;6.094;2024-02-23T07:14:56;5.00;99.90
26212;DHT22;13951;49.516;6.094;2024-02-23T07:17:29;5.00;99.90
26212;DHT22;13951;49.516;6.094;2024-02-23T07:20:03;5.00;99.90
26212;DHT22;13951;49.516;6.094;2024-02-23T07:22:39;5.10;99.90
26212;DHT22;13951;49.516;6.094;2024-02-23T07:25:16;5.10;99.90
26212;DHT22;13951;49.516;6.094;2024-02-23T07:27:49;5.10;99.90
26212;DHT22;13951;49.516;6.094;2024-02-23T07:30:23;5.10;99.90
26212;DHT22;13951;49.516;6.094;2024-02-23T07:32:56;5.10;99.90
26212;DHT22;13951;49.516;6.094;2024-02-23T07:35:29;5.20;99.90
26212;DHT22;13951;49.516;6.094;2024-02-23T07:38:03;5.20;99.90
26212;DHT22;13951;49.516;6.094;2024-02-23T07:40:36;5.20;99.90
26212;DHT22;13951;49.516;6.094;2024-02-23T07:43:09;5.20;99.90
26212;DHT22;13951;49.516;6.094;2024-02-23T07:45:45;5.20;99.90
26212;DHT22;13951;49.516;6.094;2024-02-23T07:48:19;5.20;99.90
26212;DHT22;13951;49.516;6.094;2024-02-23T07:50:52;5.30;99.90
26212;DHT22;13951;49.516;6.094;2024-02-23T07:53:25;5.40;99.90
26212;DHT22;13951;49.516;6.094;2024-02-23T07:55:59;5.40;99.90
26212;DHT22;13951;49.516;6.094;2024-02-23T07:58:35;5.40;99.90
26212;DHT22;13951;49.516;6.094;2024-02-23T08:01:08;5.50;99.90
26212;DHT22;13951;49.516;6.094;2024-02-23T08:03:42;5.50;99.90
26212;DHT22;13951;49.516;6.094;2024-02-23T08:06:16;5.50;99.90
26212;DHT22;13951;49.516;6.094;2024-02-23T08:08:49;5.60;99.90
26212;DHT22;13951;49.516;6.094;2024-02-23T08:11:25;5.60;99.90
26212;DHT22;13951;49.516;6.094;2024-02-23T08:13:58;5.70;99.90
26212;DHT22;13951;49.516;6.094;2024-02-23T08:16:32;5.70;99.90
26212;DHT22;13951;49.516;6.094;2024-02-23T08:19:05;5.70;99.90
26212;DHT22;13951;49.516;6.094;2024-02-23T08:21:38;5.80;99.90
26212;DHT22;13951;49.516;6.094;2024-02-23T08:24:12;5.80;99.90
26212;DHT22;13951;49.516;6.094;2024-02-23T08:26:45;5.80;99.90
26212;DHT22;13951;49.516;6.094;2024-02-23T08:29:18;5.80;99.90
26212;DHT22;13951;49.516;6.094;2024-02-23T08:31:52;5.80;99.90
26212;DHT22;13951;49.516;6.094;2024-02-23T08:34:25;5.80;99.90
26212;DHT22;13951;49.516;6.094;2024-02-23T08:36:58;5.80;99.90
26212;DHT22;13951;49.516;6.094;2024-02-23T08:39:31;5.70;99.90
26212;DHT22;13951;49.516;6.094;2024-02-23T08:42:06;5.60;99.90
26212;DHT22;13951;49.516;6.094;2024-02-23T08:44:39;5.60;99.90
26212;DHT22;13951;49.516;6.094;2024-02-23T08:47:13;5.60;99.90
26212;DHT22;13951;49.516;6.094;2024-02-23T08:49:47;5.60;99.90
26212;DHT22;13951;49.516;6.094;2024-02-23T08:52:20;5.60;99.90
26212;DHT22;13951;49.516;6.094;2024-02-23T08:54:53;5.60;99.90
26212;DHT22;13951;49.516;6.094;2024-02-23T08:57:27;5.70;99.90
26212;DHT22;13951;49.516;6.094;2024-02-23T09:00:01;5.70;99.90
26212;DHT22;13951;49.516;6.094;2024-02-23T09:02:34;5.80;99.90
26212;DHT22;13951;49.516;6.094;2024-02-23T09:05:09;5.90;99.90
26212;DHT22;13951;49.516;6.094;2024-02-23T09:07:42;6.00;99.90
26212;DHT22;13951;49.516;6.094;2024-02-23T09:10:16;6.10;99.90
26212;DHT22;13951;49.516;6.094;2024-02-23T09:12:50;6.10;99.90
26212;DHT22;13951;49.516;6.094;2024-02-23T09:15:24;6.10;99.90
26212;DHT22;13951;49.516;6.094;2024-02-23T09:17:57;6.10;99.90
26212;DHT22;13951;49.516;6.094;2024-02-23T09:20:30;6.20;99.90
26212;DHT22;13951;49.516;6.094;2024-02-23T09:23:04;6.30;99.90
26212;DHT22;13951;49.516;6.094;2024-02-23T09:25:38;6.20;99.90
26212;DHT22;13951;49.516;6.094;2024-02-23T09:28:14;6.20;99.90
26212;DHT22;13951;49.516;6.094;2024-02-23T09:30:47;6.20;99.90
26212;DHT22;13951;49.516;6.094;2024-02-23T09:33:20;6.10;99.90
26212;DHT22;13951;49.516;6.094;2024-02-23T09:35:54;6.20;99.90
26212;DHT22;13951;49.516;6.094;2024-02-23T09:38:27;6.20;99.90
26212;DHT22;13951;49.516;6.094;2024-02-23T09:41:01;6.20;99.90
26212;DHT22;13951;49.516;6.094;2024-02-23T09:43:34;6.20;99.90
26212;DHT22;13951;49.516;6.094;2024-02-23T09:46:07;6.20;99.90
26212;DHT22;13951;49.516;6.094;2024-02-23T09:48:45;6.20;99.90
26212;DHT22;13951;49.516;6.094;2024-02-23T09:51:19;6.30;99.90
26212;DHT22;13951;49.516;6.094;2024-02-23T09:53:53;6.30;99.90
26212;DHT22;13951;49.516;6.094;2024-02-23T09:56:27;6.30;99.90
26212;DHT22;13951;49.516;6.094;2024-02-23T09:59:03;6.30;99.90
26212;DHT22;13951;49.516;6.094;2024-02-23T10:01:37;6.30;99.90
26212;DHT22;13951;49.516;6.094;2024-02-23T10:04:10;6.30;99.90
26212;DHT22;13951;49.516;6.094;2024-02-23T10:06:44;6.30;99.90
26212;DHT22;13951;49.516;6.094;2024-02-23T10:09:17;6.30;99.90
26212;DHT22;13951;49.516;6.094;2024-02-23T10:11:54;6.40;99.90
26212;DHT22;13951;49.516;6.094;2024-02-23T10:14:28;6.40;99.90
26212;DHT22;13951;49.516;6.094;2024-02-23T10:17:01;6.50;99.90
26212;DHT22;13951;49.516;6.094;2024-02-23T10:19:35;6.50;99.90
26212;DHT22;13951;49.516;6.094;2024-02-23T10:22:09;6.50;99.90
26212;DHT22;13951;49.516;6.094;2024-02-23T10:24:43;6.50;99.90
26212;DHT22;13951;49.516;6.094;2024-02-23T10:27:17;6.50;99.90
26212;DHT22;13951;49.516;6.094;2024-02-23T10:29:50;6.50;99.90
26212;DHT22;13951;49.516;6.094;2024-02-23T10:32:25;6.40;99.90
26212;DHT22;13951;49.516;6.094;2024-02-23T10:35:03;6.40;99.90
26212;DHT22;13951;49.516;6.094;2024-02-23T10:37:38;6.40;99.90
26212;DHT22;13951;49.516;6.094;2024-02-23T10:40:16;6.50;99.90
26212;DHT22;13951;49.516;6.094;2024-02-23T10:42:51;6.60;99.90
26212;DHT22;13951;49.516;6.094;2024-02-23T10:45:27;6.70;99.90
26212;DHT22;13951;49.516;6.094;2024-02-23T10:48:00;6.70;99.90
26212;DHT22;13951;49.516;6.094;2024-02-23T10:50:34;6.70;99.90
26212;DHT22;13951;49.516;6.094;2024-02-23T10:53:08;6.70;99.90
26212;DHT22;13951;49.516;6.094;2024-02-23T10:55:44;6.60;99.90
26212;DHT22;13951;49.516;6.094;2024-02-23T10:58:18;6.60;99.90
26212;DHT22;13951;49.516;6.094;2024-02-23T11:00:51;6.60;99.90
26212;DHT22;13951;49.516;6.094;2024-02-23T11:03:25;6.60;99.90
26212;DHT22;13951;49.516;6.094;2024-02-23T11:05:59;6.60;99.90
26212;DHT22;13951;49.516;6.094;2024-02-23T11:08:35;6.50;99.90
26212;DHT22;13951;49.516;6.094;2024-02-23T11:11:11;6.40;99.90
26212;DHT22;13951;49.516;6.094;2024-02-23T11:13:45;6.30;99.90
26212;DHT22;13951;49.516;6.094;2024-02-23T11:16:22;6.20;99.90
26212;DHT22;13951;49.516;6.094;2024-02-23T11:19:07;6.50;99.90
26212;DHT22;13951;49.516;6.094;2024-02-23T11:21:42;6.70;99.90
26212;DHT22;13951;49.516;6.094;2024-02-23T11:24:16;6.80;99.90
26212;DHT22;13951;49.516;6.094;2024-02-23T11:26:50;6.80;99.90
26212;DHT22;13951;49.516;6.094;2024-02-23T11:29:31;6.80;99.90
26212;DHT22;13951;49.516;6.094;2024-02-23T11:32:16;7.00;99.90
26212;DHT22;13951;49.516;6.094;2024-02-23T11:34:54;7.30;99.90
26212;DHT22;13951;49.516;6.094;2024-02-23T11:37:29;7.70;99.90
26212;DHT22;13951;49.516;6.094;2024-02-23T11:40:03;7.90;99.90
26212;DHT22;13951;49.516;6.094;2024-02-23T11:42:38;7.90;99.90
26212;DHT22;13951;49.516;6.094;2024-02-23T11:45:15;7.80;99.90
26212;DHT22;13951;49.516;6.094;2024-02-23T11:47:48;7.70;99.90
26212;DHT22;13951;49.516;6.094;2024-02-23T11:50:22;7.90;99.90
26212;DHT22;13951;49.516;6.094;2024-02-23T11:52:55;8.30;99.90
26212;DHT22;13951;49.516;6.094;2024-02-23T11:55:28;8.50;99.90
26212;DHT22;13951;49.516;6.094;2024-02-23T11:58:01;8.30;99.90
26212;DHT22;13951;49.516;6.094;2024-02-23T12:00:43;8.30;99.90
26212;DHT22;13951;49.516;6.094;2024-02-23T12:03:16;8.70;99.90
26212;DHT22;13951;49.516;6.094;2024-02-23T12:05:50;9.10;99.90
26212;DHT22;13951;49.516;6.094;2024-02-23T12:08:28;9.00;99.90
26212;DHT22;13951;49.516;6.094;2024-02-23T12:11:02;8.70;99.90
26212;DHT22;13951;49.516;6.094;2024-02-23T12:13:37;8.60;99.90
26212;DHT22;13951;49.516;6.094;2024-02-23T12:16:10;8.40;99.90
26212;DHT22;13951;49.516;6.094;2024-02-23T12:18:44;8.80;99.90
26212;DHT22;13951;49.516;6.094;2024-02-23T12:21:17;9.40;99.90
26212;DHT22;13951;49.516;6.094;2024-02-23T12:23:51;10.10;99.90
26212;DHT22;13951;49.516;6.094;2024-02-23T12:26:24;10.30;99.90
26212;DHT22;13951;49.516;6.094;2024-02-23T12:29:02;10.50;99.90
26212;DHT22;13951;49.516;6.094;2024-02-23T12:31:36;10.90;99.90
26212;DHT22;13951;49.516;6.094;2024-02-23T12:34:11;10.60;99.90
26212;DHT22;13951;49.516;6.094;2024-02-23T12:36:46;10.20;99.90
26212;DHT22;13951;49.516;6.094;2024-02-23T12:39:19;10.00;99.90
26212;DHT22;13951;49.516;6.094;2024-02-23T12:41:52;9.90;99.90
26212;DHT22;13951;49.516;6.094;2024-02-23T12:44:26;9.90;99.90
26212;DHT22;13951;49.516;6.094;2024-02-23T12:46:59;10.40;99.90
26212;DHT22;13951;49.516;6.094;2024-02-23T12:49:32;11.20;99.90
26212;DHT22;13951;49.516;6.094;2024-02-23T12:52:06;11.80;99.90
26212;DHT22;13951;49.516;6.094;2024-02-23T12:54:39;11.70;99.90
26212;DHT22;13951;49.516;6.094;2024-02-23T12:57:12;11.10;99.90
26212;DHT22;13951;49.516;6.094;2024-02-23T12:59:45;10.50;99.90
26212;DHT22;13951;49.516;6.094;2024-02-23T13:02:19;10.10;99.90
26212;DHT22;13951;49.516;6.094;2024-02-23T13:04:53;10.20;99.90
26212;DHT22;13951;49.516;6.094;2024-02-23T13:07:27;10.30;99.90
26212;DHT22;13951;49.516;6.094;2024-02-23T13:10:03;10.10;99.90
26212;DHT22;13951;49.516;6.094;2024-02-23T13:12:37;10.30;99.90
26212;DHT22;13951;49.516;6.094;2024-02-23T13:15:10;10.70;99.90
26212;DHT22;13951;49.516;6.094;2024-02-23T13:17:43;11.00;99.90
26212;DHT22;13951;49.516;6.094;2024-02-23T13:20:17;11.30;99.90
26212;DHT22;13951;49.516;6.094;2024-02-23T13:22:50;11.70;99.90
26212;DHT22;13951;49.516;6.094;2024-02-23T13:25:23;12.00;99.90
26212;DHT22;13951;49.516;6.094;2024-02-23T13:27:57;12.00;99.90
26212;DHT22;13951;49.516;6.094;2024-02-23T13:30:31;11.60;99.90
26212;DHT22;13951;49.516;6.094;2024-02-23T13:33:05;11.00;99.90
26212;DHT22;13951;49.516;6.094;2024-02-23T13:35:39;10.60;99.90
26212;DHT22;13951;49.516;6.094;2024-02-23T13:38:13;10.00;99.90
26212;DHT22;13951;49.516;6.094;2024-02-23T13:40:47;9.70;99.90
26212;DHT22;13951;49.516;6.094;2024-02-23T13:43:20;9.50;99.90
26212;DHT22;13951;49.516;6.094;2024-02-23T13:45:56;9.30;99.90
26212;DHT22;13951;49.516;6.094;2024-02-23T13:48:29;9.10;99.90
26212;DHT22;13951;49.516;6.094;2024-02-23T13:51:04;9.00;99.90
26212;DHT22;13951;49.516;6.094;2024-02-23T13:53:37;8.90;99.90
26212;DHT22;13951;49.516;6.094;2024-02-23T13:56:11;8.90;99.90
26212;DHT22;13951;49.516;6.094;2024-02-23T13:58:44;8.80;99.90
26212;DHT22;13951;49.516;6.094;2024-02-23T14:01:17;8.80;99.90
26212;DHT22;13951;49.516;6.094;2024-02-23T14:03:51;8.80;99.90
26212;DHT22;13951;49.516;6.094;2024-02-23T14:06:24;8.90;99.90
26212;DHT22;13951;49.516;6.094;2024-02-23T14:08:58;8.90;99.90
26212;DHT22;13951;49.516;6.094;2024-02-23T14:11:32;9.00;99.90
26212;DHT22;13951;49.516;6.094;2024-02-23T14:14:06;9.00;99.90
26212;DHT22;13951;49.516;6.094;2024-02-23T14:16:41;9.00;99.90
26212;DHT22;13951;49.516;6.094;2024-02-23T14:19:14;8.90;99.90
26212;DHT22;13951;49.516;6.094;2024-02-23T14:21:48;8.90;99.90
26212;DHT22;13951;49.516;6.094;2024-02-23T14:24:21;8.90;99.90
26212;DHT22;13951;49.516;6.094;2024-02-23T14:26:54;8.90;99.90
26212;DHT22;13951;49.516;6.094;2024-02-23T14:29:28;8.90;99.90
26212;DHT22;13951;49.516;6.094;2024-02-23T14:32:01;9.00;99.90
26212;DHT22;13951;49.516;6.094;2024-02-23T14:34:34;9.10;99.90
26212;DHT22;13951;49.516;6.094;2024-02-23T14:37:08;9.00;99.90
26212;DHT22;13951;49.516;6.094;2024-02-23T14:39:41;8.90;99.90
26212;DHT22;13951;49.516;6.094;2024-02-23T14:42:17;8.80;99.90
26212;DHT22;13951;49.516;6.094;2024-02-23T14:44:50;8.70;99.90
26212;DHT22;13951;49.516;6.094;2024-02-23T14:47:24;8.70;99.90
26212;DHT22;13951;49.516;6.094;2024-02-23T14:50:07;8.60;99.90
26212;DHT22;13951;49.516;6.094;2024-02-23T14:52:41;8.60;99.90
26212;DHT22;13951;49.516;6.094;2024-02-23T14:55:17;8.50;99.90
26212;DHT22;13951;49.516;6.094;2024-02-23T14:57:51;8.50;99.90
26212;DHT22;13951;49.516;6.094;2024-02-23T15:00:25;8.40;99.90
26212;DHT22;13951;49.516;6.094;2024-02-23T15:02:59;8.20;99.90
26212;DHT22;13951;49.516;6.094;2024-02-23T15:05:32;8.10;99.90
26212;DHT22;13951;49.516;6.094;2024-02-23T15:08:07;8.00;99.90
26212;DHT22;13951;49.516;6.094;2024-02-23T15:10:44;7.90;99.90
26212;DHT22;13951;49.516;6.094;2024-02-23T15:13:18;7.90;99.90
26212;DHT22;13951;49.516;6.094;2024-02-23T15:15:52;7.90;99.90
26212;DHT22;13951;49.516;6.094;2024-02-23T15:18:26;8.00;99.90
26212;DHT22;13951;49.516;6.094;2024-02-23T15:20:59;7.90;99.90
26212;DHT22;13951;49.516;6.094;2024-02-23T15:23:36;7.90;99.90
26212;DHT22;13951;49.516;6.094;2024-02-23T15:26:09;7.90;99.90
26212;DHT22;13951;49.516;6.094;2024-02-23T15:28:44;7.90;99.90
26212;DHT22;13951;49.516;6.094;2024-02-23T15:31:17;7.90;99.90
26212;DHT22;13951;49.516;6.094;2024-02-23T15:33:50;7.90;99.90
26212;DHT22;13951;49.516;6.094;2024-02-23T15:36:24;8.00;99.90
26212;DHT22;13951;49.516;6.094;2024-02-23T15:38:57;8.00;99.90
26212;DHT22;13951;49.516;6.094;2024-02-23T15:41:38;8.00;99.90
26212;DHT22;13951;49.516;6.094;2024-02-23T15:44:12;8.10;99.90
26212;DHT22;13951;49.516;6.094;2024-02-23T15:46:45;8.10;99.90
26212;DHT22;13951;49.516;6.094;2024-02-23T15:49:18;8.20;99.90
26212;DHT22;13951;49.516;6.094;2024-02-23T15:52:12;8.20;99.90
26212;DHT22;13951;49.516;6.094;2024-02-23T15:54:45;8.20;99.90
26212;DHT22;13951;49.516;6.094;2024-02-23T15:57:19;8.10;99.90
26212;DHT22;13951;49.516;6.094;2024-02-23T15:59:55;8.00;99.90
26212;DHT22;13951;49.516;6.094;2024-02-23T16:02:36;8.00;99.90
26212;DHT22;13951;49.516;6.094;2024-02-23T16:05:09;7.90;99.90
26212;DHT22;13951;49.516;6.094;2024-02-23T16:07:44;8.00;99.90
26212;DHT22;13951;49.516;6.094;2024-02-23T16:10:18;8.00;99.90
26212;DHT22;13951;49.516;6.094;2024-02-23T16:12:52;8.10;99.90
26212;DHT22;13951;49.516;6.094;2024-02-23T16:15:26;8.10;99.90
26212;DHT22;13951;49.516;6.094;2024-02-23T16:17:59;8.10;99.90
26212;DHT22;13951;49.516;6.094;2024-02-23T16:20:33;8.10;99.90
26212;DHT22;13951;49.516;6.094;2024-02-23T16:23:07;8.10;99.90
26212;DHT22;13951;49.516;6.094;2024-02-23T16:25:40;8.00;99.90
26212;DHT22;13951;49.516;6.094;2024-02-23T16:28:13;7.90;99.90